GBYD/BJL METAR and TAF weather

Enter ICAO airport designator
Station Type Date Time Source
GBYD METAR 2021/03/06 01:00 UTC NOAA

GBYD 060100Z 32004KT 9000 SKC 21/16 Q1009


Station Type Date Time Source
GBYD Decoded METAR 2021/03/06 01:00 UTC NOAA

Banjul / Yundum, Gambia, The (GBYD) 13-21N 016-48W 36M
Mar 05, 2021 - 08:00 PM EST / 2021.03.06 0100 UTC
Wind: from the NW (320 degrees) at 5 MPH (4 KT):0
Visibility: 5 mile(s):0
Sky conditions: clear
Temperature: 69 F (21 C)
Dew Point: 60 F (16 C)
Relative Humidity: 73%
Pressure (altimeter): 29.80 in. Hg (1009 hPa)
ob: GBYD 060100Z 32004KT 9000 SKC 21/16 Q1009
cycle: 1

Station Type Date Time Source
GBYD TAF 2021/03/05 18:30 UTC NOAA

TAF TAF GBYD 051730Z 0518/0624 VRB03KT CAVOK

Example: see airport list